createdAt,value
2018-02-27T00:02:22.497Z,-2.38
2018-02-27T00:04:50.072Z,-2.38
2018-02-27T00:07:17.779Z,-2.43
2018-02-27T00:09:45.602Z,-2.53
2018-02-27T00:12:13.162Z,-2.57
2018-02-27T00:14:41.085Z,-2.56
2018-02-27T00:17:08.665Z,-2.56
2018-02-27T00:19:36.223Z,-2.55
2018-02-27T00:22:03.884Z,-2.56
2018-02-27T00:24:31.482Z,-2.57
2018-02-27T00:26:59.062Z,-2.58
2018-02-27T00:29:26.683Z,-2.56
2018-02-27T00:31:54.618Z,-2.59
2018-02-27T00:34:22.177Z,-2.60
2018-02-27T00:36:49.786Z,-2.66
2018-02-27T00:39:17.449Z,-2.68
2018-02-27T00:41:45.020Z,-2.69
2018-02-27T00:44:12.819Z,-2.73
2018-02-27T00:46:40.459Z,-2.77
2018-02-27T00:49:08.052Z,-2.79
2018-02-27T00:51:35.654Z,-2.77
2018-02-27T00:54:03.334Z,-2.93
2018-02-27T00:56:30.884Z,-2.95
2018-02-27T00:58:58.812Z,-2.91
2018-02-27T01:01:26.413Z,-2.91
2018-02-27T01:03:54.212Z,-2.92
2018-02-27T01:06:21.798Z,-3.00
2018-02-27T01:08:49.412Z,-2.98
2018-02-27T01:11:16.980Z,-2.97
2018-02-27T01:13:44.543Z,-3.01
2018-02-27T01:16:12.169Z,-3.01
2018-02-27T01:18:39.746Z,-3.04
2018-02-27T01:21:07.589Z,-3.07
2018-02-27T01:23:35.213Z,-3.07
2018-02-27T01:26:02.781Z,-3.09
2018-02-27T01:28:30.368Z,-3.13
2018-02-27T01:30:58.216Z,-3.12
2018-02-27T01:33:26.191Z,-3.12
2018-02-27T01:35:53.848Z,-3.16
2018-02-27T01:38:21.551Z,-3.16
2018-02-27T01:40:49.157Z,-3.16
2018-02-27T01:43:16.755Z,-3.13
2018-02-27T01:45:44.367Z,-3.19
2018-02-27T01:48:11.932Z,-3.22
2018-02-27T01:50:39.509Z,-3.22
2018-02-27T01:53:07.117Z,-3.24
2018-02-27T01:55:34.708Z,-3.23
2018-02-27T01:58:02.295Z,-3.24
2018-02-27T02:00:29.930Z,-3.21
2018-02-27T02:02:57.570Z,-3.22
2018-02-27T02:05:25.172Z,-3.23
2018-02-27T02:07:53.155Z,-3.20
2018-02-27T02:10:20.767Z,-3.23
2018-02-27T02:12:48.347Z,-3.25
2018-02-27T02:15:16.236Z,-3.24
2018-02-27T02:17:43.968Z,-3.28
2018-02-27T02:20:11.607Z,-3.27
2018-02-27T02:22:39.178Z,-3.27
2018-02-27T02:25:07.042Z,-3.26
2018-02-27T02:27:34.694Z,-3.23
2018-02-27T02:30:02.282Z,-3.23
2018-02-27T02:32:30.178Z,-3.22
2018-02-27T02:34:57.824Z,-3.25
2018-02-27T02:37:25.474Z,-3.22
2018-02-27T02:39:53.092Z,-3.24
2018-02-27T02:42:23.418Z,-3.26
2018-02-27T02:44:52.778Z,-3.30
2018-02-27T02:47:20.333Z,-3.33
2018-02-27T02:49:47.920Z,-3.32
2018-02-27T02:52:15.560Z,-3.32
2018-02-27T02:54:43.220Z,-3.33
2018-02-27T02:57:10.794Z,-3.35
2018-02-27T02:59:38.675Z,-3.38
2018-02-27T03:02:06.270Z,-3.38
2018-02-27T03:04:34.242Z,-3.43
2018-02-27T03:07:01.903Z,-3.45
2018-02-27T03:09:29.465Z,-3.47
2018-02-27T03:11:57.058Z,-3.45
2018-02-27T03:14:24.803Z,-3.46
2018-02-27T03:16:52.419Z,-3.50
2018-02-27T03:19:20.089Z,-3.50
2018-02-27T03:21:48.046Z,-3.50
2018-02-27T03:24:15.703Z,-3.52
2018-02-27T03:26:43.270Z,-3.54
2018-02-27T03:29:10.916Z,-3.56
2018-02-27T03:31:38.559Z,-3.59
2018-02-27T03:34:06.139Z,-3.59
2018-02-27T03:36:33.721Z,-3.63
2018-02-27T03:39:01.334Z,-3.63
2018-02-27T03:41:29.236Z,-3.65
2018-02-27T03:43:56.830Z,-3.67
2018-02-27T03:46:24.509Z,-3.67
2018-02-27T03:48:52.074Z,-3.67
2018-02-27T03:51:19.992Z,-3.69
2018-02-27T03:53:47.561Z,-3.73
2018-02-27T03:56:15.204Z,-3.74
2018-02-27T03:58:42.769Z,-3.74
2018-02-27T04:01:10.385Z,-3.76
2018-02-27T04:03:38.037Z,-3.76
2018-02-27T04:06:05.621Z,-3.78
2018-02-27T04:08:33.183Z,-3.79
2018-02-27T04:11:00.764Z,-3.79
2018-02-27T04:13:28.362Z,-3.79
2018-02-27T04:15:55.992Z,-3.80
2018-02-27T04:18:23.602Z,-3.82
2018-02-27T04:20:51.231Z,-3.84
2018-02-27T04:23:19.287Z,-3.85
2018-02-27T04:25:47.155Z,-3.87
2018-02-27T04:28:14.742Z,-3.87
2018-02-27T04:30:42.415Z,-3.85
2018-02-27T04:33:10.008Z,-3.82
2018-02-27T04:35:37.617Z,-3.81
2018-02-27T04:38:05.221Z,-3.80
2018-02-27T04:40:32.809Z,-3.76
2018-02-27T04:43:00.663Z,-3.74
2018-02-27T04:45:28.262Z,-3.72
2018-02-27T04:47:55.941Z,-3.71
2018-02-27T04:50:23.562Z,-3.69
2018-02-27T04:52:51.445Z,-3.67
2018-02-27T04:55:19.010Z,-3.64
2018-02-27T04:57:46.973Z,-3.63
2018-02-27T05:00:14.603Z,-3.61
2018-02-27T05:02:42.209Z,-3.59
2018-02-27T05:05:10.084Z,-3.58
2018-02-27T05:07:37.655Z,-3.58
2018-02-27T05:10:05.248Z,-3.58
2018-02-27T05:12:33.151Z,-3.58
2018-02-27T05:15:00.782Z,-3.57
2018-02-27T05:17:28.388Z,-3.56
2018-02-27T05:19:56.040Z,-3.54
2018-02-27T05:22:23.695Z,-3.53
2018-02-27T05:24:51.285Z,-3.50
2018-02-27T05:27:18.846Z,-3.50
2018-02-27T05:29:46.452Z,-3.48
2018-02-27T05:32:14.143Z,-3.46
2018-02-27T05:34:41.781Z,-3.47
2018-02-27T05:37:09.679Z,-3.42
2018-02-27T05:39:37.339Z,-3.47
2018-02-27T05:42:05.163Z,-3.44
2018-02-27T05:44:32.787Z,-3.43
2018-02-27T05:47:00.511Z,-3.41
2018-02-27T05:49:28.105Z,-3.38
2018-02-27T05:51:55.729Z,-3.35
2018-02-27T05:54:23.381Z,-3.34
2018-02-27T05:56:50.978Z,-3.32
2018-02-27T05:59:18.574Z,-3.31
2018-02-27T06:01:46.507Z,-3.31
2018-02-27T06:04:14.125Z,-3.21
2018-02-27T06:06:41.684Z,-3.25
2018-02-27T06:09:09.703Z,-3.24
2018-02-27T06:11:37.304Z,-3.24
2018-02-27T06:14:05.222Z,-3.20
2018-02-27T06:16:32.854Z,-3.22
2018-02-27T06:19:00.460Z,-3.17
2018-02-27T06:21:28.088Z,-3.12
2018-02-27T06:23:55.694Z,-3.10
2018-02-27T06:26:23.353Z,-3.12
2018-02-27T06:28:50.981Z,-3.15
2018-02-27T06:31:18.549Z,-3.17
2018-02-27T06:33:46.186Z,-3.17
2018-02-27T06:36:13.797Z,-3.19
2018-02-27T06:38:41.642Z,-3.22
2018-02-27T06:41:09.511Z,-3.28
2018-02-27T06:43:37.114Z,-3.30
2018-02-27T06:46:04.708Z,-3.30
2018-02-27T06:48:32.531Z,-3.27
2018-02-27T06:51:00.191Z,-3.28
2018-02-27T06:53:27.746Z,-3.32
2018-02-27T06:55:55.371Z,-3.34
2018-02-27T06:58:23.357Z,-3.35
2018-02-27T07:00:51.215Z,-3.37
2018-02-27T07:03:18.779Z,-3.39
2018-02-27T07:05:46.432Z,-3.37
2018-02-27T07:08:14.098Z,-3.37
2018-02-27T07:10:41.656Z,-3.36
2018-02-27T07:13:09.289Z,-3.33
2018-02-27T07:15:36.892Z,-3.30
2018-02-27T07:18:04.533Z,-3.29
2018-02-27T07:20:32.121Z,-3.29
2018-02-27T07:22:59.741Z,-3.30
2018-02-27T07:25:27.439Z,-3.29
2018-02-27T07:27:55.408Z,-3.25
2018-02-27T07:30:22.991Z,-3.23
2018-02-27T07:32:50.848Z,-3.20
2018-02-27T07:35:18.420Z,-3.15
2018-02-27T07:37:46.048Z,-3.16
2018-02-27T07:40:13.713Z,-3.15
2018-02-27T07:42:41.335Z,-3.15
2018-02-27T07:45:22.907Z,-3.13
2018-02-27T07:47:50.502Z,-3.10
2018-02-27T07:50:18.124Z,-3.05
2018-02-27T07:52:45.813Z,-3.04
2018-02-27T07:55:13.401Z,-2.99
2018-02-27T07:57:40.988Z,-2.97
2018-02-27T08:00:08.621Z,-2.95
2018-02-27T08:02:36.232Z,-2.92
2018-02-27T08:05:03.916Z,-2.89
2018-02-27T08:07:31.497Z,-2.89
2018-02-27T08:09:59.082Z,-2.84
2018-02-27T08:12:26.706Z,-2.82
2018-02-27T08:14:54.337Z,-2.87
2018-02-27T08:17:21.970Z,-2.82
2018-02-27T08:19:49.541Z,-2.77
2018-02-27T08:22:17.149Z,-2.73
2018-02-27T08:24:44.796Z,-2.68
2018-02-27T08:27:12.379Z,-2.63
2018-02-27T08:29:40.035Z,-2.57
2018-02-27T08:32:07.874Z,-2.48
2018-02-27T08:34:35.671Z,-2.42
2018-02-27T08:37:03.302Z,-2.41
2018-02-27T08:39:30.895Z,-2.35
2018-02-27T08:41:58.461Z,-2.30
2018-02-27T08:44:26.134Z,-2.23
2018-02-27T08:46:53.750Z,-2.14
2018-02-27T08:49:21.341Z,-2.07
2018-02-27T08:51:48.959Z,-2.01
2018-02-27T08:54:16.551Z,-1.97
2018-02-27T08:56:44.194Z,-1.91
2018-02-27T08:59:12.010Z,-1.96
2018-02-27T09:01:39.578Z,-1.92
2018-02-27T09:04:07.554Z,-1.87
2018-02-27T09:06:35.147Z,-1.84
2018-02-27T09:09:02.739Z,-1.76
2018-02-27T09:11:30.736Z,-1.70
2018-02-27T09:13:58.546Z,-1.61
2018-02-27T09:16:26.107Z,-1.55
2018-02-27T09:18:53.759Z,-1.51
2018-02-27T09:21:21.428Z,-1.50
2018-02-27T09:23:49.019Z,-1.48
2018-02-27T09:26:16.648Z,-1.51
2018-02-27T09:28:44.231Z,-1.52
2018-02-27T09:31:12.137Z,-1.45
2018-02-27T09:33:40.096Z,-1.34
2018-02-27T09:36:07.996Z,-1.35
2018-02-27T09:38:35.611Z,-1.27
2018-02-27T09:41:03.197Z,-1.21
2018-02-27T09:43:30.806Z,-1.19
2018-02-27T09:45:58.423Z,-1.31
2018-02-27T09:48:26.079Z,-1.26
2018-02-27T09:50:53.664Z,-1.14
2018-02-27T09:53:21.255Z,-0.94
2018-02-27T09:55:48.846Z,-0.83
2018-02-27T09:58:16.451Z,-0.69
2018-02-27T10:00:44.398Z,-0.62
2018-02-27T10:03:12.057Z,-0.53
2018-02-27T10:05:39.674Z,-0.47
2018-02-27T10:08:07.272Z,-0.53
2018-02-27T10:10:34.885Z,-0.62
2018-02-27T10:13:02.612Z,-0.65
2018-02-27T10:15:30.210Z,-0.72
2018-02-27T10:17:57.798Z,-0.69
2018-02-27T10:20:25.447Z,-0.73
2018-02-27T10:22:53.069Z,-0.70
2018-02-27T10:25:20.700Z,-0.50
2018-02-27T10:27:48.325Z,-0.26
2018-02-27T10:30:16.349Z,-0.15
2018-02-27T10:32:44.026Z,-0.01
2018-02-27T10:35:11.593Z,0.12
2018-02-27T10:37:39.318Z,0.31
2018-02-27T10:40:06.954Z,0.34
2018-02-27T10:42:34.773Z,0.37
2018-02-27T10:45:02.428Z,0.30
2018-02-27T10:47:30.049Z,0.27
2018-02-27T10:49:57.608Z,0.17
2018-02-27T10:52:25.203Z,0.08
2018-02-27T10:54:52.897Z,0.04
2018-02-27T10:57:20.550Z,0.10
2018-02-27T10:59:48.140Z,0.04
2018-02-27T11:02:15.972Z,0.11
2018-02-27T11:04:43.603Z,0.11
2018-02-27T11:07:11.483Z,0.04
2018-02-27T11:09:39.129Z,0.04
2018-02-27T11:12:06.825Z,-0.04
2018-02-27T11:14:34.459Z,-0.03
2018-02-27T11:17:02.092Z,0.05
2018-02-27T11:19:29.662Z,-0.06
2018-02-27T11:21:57.317Z,-0.01
2018-02-27T11:24:24.889Z,-0.03
2018-02-27T11:26:52.529Z,0.20
2018-02-27T11:29:20.143Z,0.47
2018-02-27T11:31:47.728Z,0.68
2018-02-27T11:34:15.355Z,0.78
2018-02-27T11:36:42.980Z,0.74
2018-02-27T11:39:10.622Z,0.76
2018-02-27T11:41:38.213Z,0.74
2018-02-27T11:44:05.790Z,0.62
2018-02-27T11:46:33.420Z,0.69
2018-02-27T11:49:01.015Z,0.74
2018-02-27T11:51:28.672Z,0.73
2018-02-27T11:53:56.321Z,0.76
2018-02-27T11:56:24.220Z,0.67
2018-02-27T11:58:51.847Z,0.72
2018-02-27T12:01:19.508Z,0.71
2018-02-27T12:03:47.092Z,0.78
2018-02-27T12:06:14.963Z,0.98
2018-02-27T12:08:42.572Z,1.14
2018-02-27T12:11:10.167Z,1.31
2018-02-27T12:13:37.762Z,1.51
2018-02-27T12:16:05.400Z,1.62
2018-02-27T12:18:33.083Z,1.62
2018-02-27T12:21:00.688Z,1.55
2018-02-27T12:23:28.252Z,1.42
2018-02-27T12:25:55.892Z,1.01
2018-02-27T12:28:23.470Z,0.93
2018-02-27T12:30:51.039Z,0.83
2018-02-27T12:33:18.689Z,0.76
2018-02-27T12:35:46.294Z,0.77
2018-02-27T12:38:13.876Z,0.83
2018-02-27T12:40:41.478Z,0.78
2018-02-27T12:43:09.326Z,0.81
2018-02-27T12:45:37.206Z,0.89
2018-02-27T12:48:04.838Z,1.01
2018-02-27T12:50:32.423Z,0.88
2018-02-27T12:53:01.251Z,0.90
2018-02-27T12:55:29.133Z,0.84
2018-02-27T12:57:57.100Z,0.54
2018-02-27T13:00:24.733Z,0.48
2018-02-27T13:02:52.368Z,0.44
2018-02-27T13:05:20.028Z,0.43
2018-02-27T13:07:47.651Z,0.48
2018-02-27T13:10:15.304Z,0.52
2018-02-27T13:12:42.902Z,0.60
2018-02-27T13:15:10.529Z,0.61
2018-02-27T13:17:38.201Z,0.68
2018-02-27T13:20:05.863Z,0.69
2018-02-27T13:22:33.734Z,0.67
2018-02-27T13:25:01.337Z,0.67
2018-02-27T13:27:28.998Z,0.51
2018-02-27T13:29:56.576Z,0.27
2018-02-27T13:32:24.250Z,0.15
2018-02-27T13:34:51.893Z,0.06
2018-02-27T13:37:19.615Z,0.00
2018-02-27T13:39:47.204Z,-0.04
2018-02-27T13:42:15.064Z,-0.03
2018-02-27T13:44:42.727Z,-0.08
2018-02-27T13:47:10.298Z,-0.11
2018-02-27T13:49:38.114Z,-0.16
2018-02-27T13:52:05.784Z,-0.16
2018-02-27T13:54:33.495Z,-0.06
2018-02-27T13:57:01.097Z,0.07
2018-02-27T13:59:28.663Z,0.20
2018-02-27T14:01:56.275Z,0.29
2018-02-27T14:04:23.838Z,0.41
2018-02-27T14:06:51.481Z,0.53
2018-02-27T14:09:19.109Z,0.70
2018-02-27T14:11:46.709Z,0.95
2018-02-27T14:14:14.290Z,1.16
2018-02-27T14:16:41.919Z,1.18
2018-02-27T14:19:09.483Z,1.04
2018-02-27T14:21:37.038Z,1.06
2018-02-27T14:24:05.080Z,1.23
2018-02-27T14:26:32.939Z,1.55
2018-02-27T14:29:00.924Z,1.76
2018-02-27T14:31:28.609Z,2.09
2018-02-27T14:33:56.208Z,2.33
2018-02-27T14:36:23.810Z,2.33
2018-02-27T14:38:51.491Z,2.43
2018-02-27T14:41:19.450Z,1.87
2018-02-27T14:43:47.107Z,1.79
2018-02-27T14:46:14.692Z,1.78
2018-02-27T14:48:42.257Z,2.09
2018-02-27T14:51:09.930Z,2.27
2018-02-27T14:53:37.595Z,2.25
2018-02-27T14:56:05.175Z,1.97
2018-02-27T14:58:32.856Z,1.74
2018-02-27T15:01:00.484Z,1.53
2018-02-27T15:03:28.203Z,1.35
2018-02-27T15:05:56.161Z,1.33
2018-02-27T15:08:23.729Z,1.20
2018-02-27T15:10:51.324Z,1.22
2018-02-27T15:13:18.953Z,1.04
2018-02-27T15:15:46.561Z,0.91
2018-02-27T15:18:14.195Z,0.88
2018-02-27T15:20:41.859Z,0.78
2018-02-27T15:23:09.506Z,0.71
2018-02-27T15:25:37.101Z,0.68
2018-02-27T15:28:04.695Z,0.65
2018-02-27T15:30:32.330Z,0.62
2018-02-27T15:32:59.946Z,0.62
2018-02-27T15:35:27.778Z,0.63
2018-02-27T15:37:55.661Z,0.37
2018-02-27T15:40:23.312Z,0.22
2018-02-27T15:42:50.921Z,0.19
2018-02-27T15:45:18.539Z,0.17
2018-02-27T15:47:46.128Z,0.12
2018-02-27T15:50:13.712Z,0.00
2018-02-27T15:52:41.350Z,-0.02
2018-02-27T15:55:08.950Z,-0.03
2018-02-27T15:57:36.611Z,-0.17
2018-02-27T16:00:04.193Z,-0.22
2018-02-27T16:02:31.861Z,-0.28
2018-02-27T16:04:59.568Z,-0.32
2018-02-27T16:07:27.192Z,-0.40
2018-02-27T16:09:55.014Z,-0.50
2018-02-27T16:12:22.688Z,-0.55
2018-02-27T16:14:50.362Z,-0.52
2018-02-27T16:17:17.952Z,-0.53
2018-02-27T16:19:45.642Z,-0.50
2018-02-27T16:22:13.333Z,-0.46
2018-02-27T16:24:41.019Z,-0.53
2018-02-27T16:27:08.676Z,-0.56
2018-02-27T16:29:36.267Z,-0.62
2018-02-27T16:32:04.566Z,-0.76
2018-02-27T16:34:32.169Z,-0.84
2018-02-27T16:36:59.725Z,-0.94
2018-02-27T16:39:27.384Z,-0.96
2018-02-27T16:41:55.306Z,-1.09
2018-02-27T16:44:22.965Z,-1.34
2018-02-27T16:46:50.563Z,-1.45
2018-02-27T16:49:18.171Z,-1.62
2018-02-27T16:51:45.926Z,-1.63
2018-02-27T16:54:13.821Z,-1.71
2018-02-27T16:56:41.397Z,-1.83
2018-02-27T16:59:09.041Z,-1.85
2018-02-27T17:01:36.715Z,-1.98
2018-02-27T17:04:04.573Z,-2.12
2018-02-27T17:06:32.220Z,-2.19
2018-02-27T17:08:59.786Z,-2.21
2018-02-27T17:11:27.388Z,-2.27
2018-02-27T17:13:55.005Z,-2.25
2018-02-27T17:16:22.660Z,-2.21
2018-02-27T17:18:50.232Z,-2.20
2018-02-27T17:21:18.180Z,-2.14
2018-02-27T17:23:45.789Z,-2.11
2018-02-27T17:26:13.387Z,-2.14
2018-02-27T17:28:41.191Z,-2.17
2018-02-27T17:31:08.793Z,-2.19
2018-02-27T17:33:36.357Z,-2.25
2018-02-27T17:36:03.975Z,-2.21
2018-02-27T17:38:31.945Z,-2.19
2018-02-27T17:40:59.550Z,-2.16
2018-02-27T17:43:27.117Z,-2.16
2018-02-27T17:45:54.871Z,-2.17
2018-02-27T17:48:22.438Z,-2.21
2018-02-27T17:50:49.999Z,-2.27
2018-02-27T17:53:17.654Z,-2.27
2018-02-27T17:55:45.224Z,-2.25
2018-02-27T17:58:12.787Z,-2.22
2018-02-27T18:00:40.448Z,-2.22
2018-02-27T18:03:08.011Z,-2.25
2018-02-27T18:05:35.918Z,-2.32
2018-02-27T18:08:03.604Z,-2.36
2018-02-27T18:10:31.198Z,-2.41
2018-02-27T18:12:58.813Z,-2.49
2018-02-27T18:15:26.425Z,-2.55
2018-02-27T18:17:54.093Z,-2.55
2018-02-27T18:20:22.116Z,-2.57
2018-02-27T18:22:49.691Z,-2.60
2018-02-27T18:25:17.270Z,-2.67
2018-02-27T18:27:44.895Z,-2.66
2018-02-27T18:30:12.487Z,-2.68
2018-02-27T18:32:40.135Z,-2.69
2018-02-27T18:35:08.084Z,-2.76
2018-02-27T18:37:35.857Z,-2.77
2018-02-27T18:40:03.505Z,-2.77
2018-02-27T18:42:31.071Z,-2.78
2018-02-27T18:44:58.664Z,-2.81
2018-02-27T18:47:26.277Z,-2.84
2018-02-27T18:49:53.896Z,-2.87
2018-02-27T18:52:21.815Z,-2.88
2018-02-27T18:54:49.492Z,-2.88
2018-02-27T18:57:17.087Z,-2.89
2018-02-27T18:59:44.647Z,-2.89
2018-02-27T19:02:12.303Z,-2.94
2018-02-27T19:04:39.871Z,-2.96
2018-02-27T19:07:07.479Z,-2.97
2018-02-27T19:09:35.077Z,-2.97
2018-02-27T19:12:02.642Z,-3.00
2018-02-27T19:14:30.288Z,-3.05
2018-02-27T19:16:57.863Z,-3.06
2018-02-27T19:19:25.516Z,-3.10
2018-02-27T19:21:53.151Z,-3.10
2018-02-27T19:24:20.718Z,-3.11
2018-02-27T19:26:48.273Z,-3.13
2018-02-27T19:29:16.012Z,-3.14
2018-02-27T19:31:43.617Z,-3.17
2018-02-27T19:34:11.178Z,-3.20
2018-02-27T19:36:38.786Z,-3.24
2018-02-27T19:39:06.346Z,-3.26
2018-02-27T19:41:33.916Z,-3.27
2018-02-27T19:44:01.559Z,-3.30
2018-02-27T19:46:29.168Z,-3.35
2018-02-27T19:48:56.714Z,-3.38
2018-02-27T19:51:24.381Z,-3.44
2018-02-27T19:53:51.983Z,-3.42
2018-02-27T19:56:19.542Z,-3.45
2018-02-27T19:58:47.160Z,-3.47
2018-02-27T20:01:14.745Z,-3.51
2018-02-27T20:03:42.382Z,-3.57
2018-02-27T20:06:09.981Z,-3.58
2018-02-27T20:08:37.632Z,-3.60
2018-02-27T20:11:05.491Z,-3.63
2018-02-27T20:13:33.053Z,-3.64
2018-02-27T20:16:00.660Z,-3.67
2018-02-27T20:18:28.269Z,-3.72
2018-02-27T20:20:55.868Z,-3.72
2018-02-27T20:23:29.132Z,-3.75
2018-02-27T20:25:56.694Z,-3.80
2018-02-27T20:28:29.905Z,-3.81
2018-02-27T20:30:57.534Z,-3.80
2018-02-27T20:33:25.158Z,-3.83
2018-02-27T20:35:52.789Z,-3.85
2018-02-27T20:38:26.344Z,-3.83
2018-02-27T20:40:53.998Z,-3.84
2018-02-27T20:43:21.598Z,-3.86
2018-02-27T20:45:49.365Z,-3.88
2018-02-27T20:48:17.041Z,-3.87
2018-02-27T20:50:44.607Z,-3.99
2018-02-27T20:53:12.190Z,-3.99
2018-02-27T20:55:39.845Z,-3.99
2018-02-27T20:58:07.461Z,-3.91
2018-02-27T21:00:35.058Z,-3.95
2018-02-27T21:03:02.651Z,-4.02
2018-02-27T21:05:30.257Z,-4.00
2018-02-27T21:07:57.842Z,-4.04
2018-02-27T21:10:25.453Z,-4.02
2018-02-27T21:12:53.050Z,-4.10
2018-02-27T21:15:20.690Z,-4.05
2018-02-27T21:17:48.320Z,-4.04
2018-02-27T21:20:15.909Z,-4.08
2018-02-27T21:22:43.496Z,-4.11
2018-02-27T21:25:11.121Z,-4.06
2018-02-27T21:27:38.709Z,-4.12
2018-02-27T21:30:06.300Z,-4.16
2018-02-27T21:32:33.917Z,-4.16
2018-02-27T21:35:01.566Z,-4.19
2018-02-27T21:37:29.186Z,-4.26
2018-02-27T21:39:57.095Z,-4.27
2018-02-27T21:42:24.659Z,-4.25
2018-02-27T21:44:52.373Z,-4.24
2018-02-27T21:47:19.963Z,-4.26
2018-02-27T21:49:47.527Z,-4.32
2018-02-27T21:52:15.137Z,-4.32
2018-02-27T21:54:42.708Z,-4.40
2018-02-27T21:57:10.304Z,-4.40
2018-02-27T21:59:37.953Z,-4.45
2018-02-27T22:02:05.525Z,-4.43
2018-02-27T22:04:33.982Z,-4.42
2018-02-27T22:07:01.610Z,-4.41
2018-02-27T22:09:29.851Z,-4.44
2018-02-27T22:11:57.719Z,-4.45
2018-02-27T22:14:25.696Z,-4.43
2018-02-27T22:16:53.269Z,-4.45
2018-02-27T22:19:20.889Z,-4.47
2018-02-27T22:21:48.566Z,-4.38
2018-02-27T22:24:16.179Z,-4.40
2018-02-27T22:26:43.800Z,-4.36
2018-02-27T22:29:11.777Z,-4.33
2018-02-27T22:31:39.414Z,-4.30
2018-02-27T22:34:07.078Z,-4.34
2018-02-27T22:36:36.707Z,-4.32
2018-02-27T22:39:04.451Z,-4.29
2018-02-27T22:41:32.088Z,-4.30
2018-02-27T22:43:59.688Z,-4.35
2018-02-27T22:46:27.385Z,-4.40
2018-02-27T22:48:55.008Z,-4.42
2018-02-27T22:51:22.987Z,-4.42
2018-02-27T22:53:50.955Z,-4.50
2018-02-27T22:56:18.590Z,-4.52
2018-02-27T22:58:46.194Z,-4.53
2018-02-27T23:01:13.819Z,-4.52
2018-02-27T23:03:41.468Z,-4.51
2018-02-27T23:06:09.817Z,-4.51
2018-02-27T23:08:37.427Z,-4.54
2018-02-27T23:11:05.020Z,-4.51
2018-02-27T23:13:32.664Z,-4.50
2018-02-27T23:16:00.491Z,-4.52
2018-02-27T23:18:28.073Z,-4.50
2018-02-27T23:20:55.692Z,-4.50
2018-02-27T23:23:23.327Z,-4.54
2018-02-27T23:25:59.151Z,-4.55
2018-02-27T23:28:27.616Z,-4.52
2018-02-27T23:30:55.718Z,-4.48
2018-02-27T23:33:27.078Z,-4.52
2018-02-27T23:35:54.722Z,-4.54
2018-02-27T23:38:22.749Z,-4.54
2018-02-27T23:40:50.720Z,-4.58
2018-02-27T23:43:18.864Z,-4.51
2018-02-27T23:45:46.833Z,-4.47
2018-02-27T23:48:14.910Z,-4.52
2018-02-27T23:50:42.499Z,-4.49
2018-02-27T23:53:10.244Z,-4.46
2018-02-27T23:55:38.134Z,-4.46
2018-02-27T23:58:05.698Z,-4.53
